createdAt,value
2023-01-17T00:01:18.194Z,2.05
2023-01-17T00:04:03.858Z,1.50
2023-01-17T00:06:49.615Z,1.55
2023-01-17T00:09:35.196Z,1.60
2023-01-17T00:12:03.251Z,1.70
2023-01-17T00:14:30.396Z,1.67
2023-01-17T00:16:57.522Z,1.30
2023-01-17T00:19:43.314Z,1.67
2023-01-17T00:22:40.410Z,1.85
2023-01-17T00:25:29.460Z,1.80
2023-01-17T00:27:56.710Z,1.58
2023-01-17T00:30:23.941Z,1.20
2023-01-17T00:32:51.028Z,1.27
2023-01-17T00:35:18.612Z,1.00
2023-01-17T00:37:45.946Z,1.33
2023-01-17T00:40:13.118Z,1.15
2023-01-17T00:42:40.309Z,1.00
2023-01-17T00:45:26.110Z,1.20
2023-01-17T00:48:12.080Z,1.42
2023-01-17T00:50:57.967Z,1.63
2023-01-17T00:53:43.933Z,1.33
2023-01-17T00:56:29.762Z,2.60
2023-01-17T00:59:15.421Z,1.20
2023-01-17T01:02:01.633Z,1.10
2023-01-17T01:04:47.450Z,1.40
2023-01-17T01:07:33.498Z,1.23
2023-01-17T01:10:19.582Z,1.50
2023-01-17T01:13:05.227Z,1.63
2023-01-17T01:15:50.966Z,1.20
2023-01-17T01:18:36.995Z,1.00
2023-01-17T01:21:23.057Z,0.85
2023-01-17T01:24:08.710Z,0.70
2023-01-17T01:26:54.681Z,0.60
2023-01-17T01:29:40.628Z,1.00
2023-01-17T01:32:26.272Z,0.70
2023-01-17T01:34:53.333Z,0.38
2023-01-17T01:37:20.482Z,0.40
2023-01-17T01:39:47.622Z,0.50
2023-01-17T01:42:15.554Z,0.40
2023-01-17T01:44:50.319Z,0.50
2023-01-17T01:47:28.001Z,0.60
2023-01-17T01:49:55.163Z,0.40
2023-01-17T01:52:23.513Z,0.57
2023-01-17T01:54:52.696Z,0.70
2023-01-17T01:57:22.392Z,0.80
2023-01-17T01:59:52.776Z,0.98
2023-01-17T02:02:19.940Z,0.60
2023-01-17T02:04:47.349Z,0.73
2023-01-17T02:07:35.031Z,1.05
2023-01-17T02:10:03.263Z,0.32
2023-01-17T02:12:30.507Z,0.93
2023-01-17T02:14:58.005Z,0.70
2023-01-17T02:17:37.387Z,0.55
2023-01-17T02:20:20.081Z,1.15
2023-01-17T02:23:06.187Z,0.85
2023-01-17T02:25:52.128Z,1.08
2023-01-17T02:28:19.234Z,1.38
2023-01-17T02:30:51.045Z,1.95
2023-01-17T02:33:23.146Z,1.52
2023-01-17T02:36:09.038Z,1.80
2023-01-17T02:38:43.735Z,0.90
2023-01-17T02:41:16.323Z,1.00
2023-01-17T02:46:10.665Z,0.68
2023-01-17T02:48:38.070Z,0.50
2023-01-17T02:51:12.435Z,0.32
2023-01-17T02:53:42.981Z,0.60
2023-01-17T02:56:20.016Z,0.68
2023-01-17T02:58:56.469Z,0.82
2023-01-17T03:01:26.945Z,0.50
2023-01-17T03:04:01.333Z,0.80
2023-01-17T03:06:33.010Z,0.70
2023-01-17T03:09:00.159Z,1.00
2023-01-17T03:11:27.796Z,0.70
2023-01-17T03:13:56.887Z,1.33
2023-01-17T03:16:24.998Z,1.20
2023-01-17T03:18:53.711Z,0.90
2023-01-17T03:21:21.699Z,0.80
2023-01-17T03:23:49.129Z,1.20
2023-01-17T03:26:16.399Z,0.82
2023-01-17T03:28:43.872Z,1.10
2023-01-17T03:31:14.472Z,1.70
2023-01-17T03:33:41.641Z,1.52
2023-01-17T03:36:08.990Z,0.50
2023-01-17T03:38:37.361Z,0.77
2023-01-17T03:41:04.854Z,0.85
2023-01-17T03:43:32.055Z,0.80
2023-01-17T03:46:06.646Z,0.80
2023-01-17T03:48:33.919Z,0.50
2023-01-17T03:51:01.060Z,1.00
2023-01-17T03:53:28.261Z,0.80
2023-01-17T03:55:55.608Z,0.85
2023-01-17T03:58:22.960Z,1.10
2023-01-17T04:00:50.270Z,0.90
2023-01-17T04:03:17.355Z,0.93
2023-01-17T04:05:44.566Z,1.00
2023-01-17T04:08:11.710Z,1.15
2023-01-17T04:10:38.855Z,0.90
2023-01-17T04:13:06.082Z,0.88
2023-01-17T04:15:33.880Z,1.33
2023-01-17T04:18:01.197Z,0.95
2023-01-17T04:20:38.647Z,1.10
2023-01-17T04:23:06.072Z,1.40
2023-01-17T04:25:33.258Z,1.30
2023-01-17T04:28:01.074Z,0.90
2023-01-17T04:30:28.731Z,0.80
2023-01-17T04:32:55.888Z,0.63
2023-01-17T04:35:22.994Z,0.93
2023-01-17T04:37:50.092Z,0.60
2023-01-17T04:40:17.453Z,0.80
2023-01-17T04:42:48.368Z,0.80
2023-01-17T04:45:15.621Z,0.70
2023-01-17T04:47:42.969Z,0.90
2023-01-17T04:50:10.805Z,0.63
2023-01-17T04:52:37.965Z,0.93
2023-01-17T04:55:05.355Z,0.77
2023-01-17T04:57:32.440Z,0.80
2023-01-17T04:59:59.647Z,1.23
2023-01-17T05:02:26.831Z,0.90
2023-01-17T05:04:54.274Z,0.82
2023-01-17T05:07:21.350Z,1.25
2023-01-17T05:09:48.491Z,1.95
2023-01-17T05:12:15.728Z,0.75
2023-01-17T05:14:42.837Z,0.95
2023-01-17T05:17:11.232Z,0.70
2023-01-17T05:19:38.709Z,0.80
2023-01-17T05:22:15.179Z,1.20
2023-01-17T05:24:43.731Z,1.00
2023-01-17T05:27:11.667Z,0.70
2023-01-17T05:29:39.080Z,1.00
2023-01-17T05:32:06.478Z,0.98
2023-01-17T05:34:34.213Z,0.90
2023-01-17T05:37:01.328Z,1.52
2023-01-17T05:39:31.277Z,1.02
2023-01-17T05:41:58.709Z,1.40
2023-01-17T05:44:27.513Z,0.80
2023-01-17T05:46:54.885Z,1.23
2023-01-17T05:49:22.095Z,0.80
2023-01-17T05:51:49.151Z,0.98
2023-01-17T05:54:16.381Z,1.00
2023-01-17T05:56:43.540Z,0.80
2023-01-17T05:59:13.185Z,0.90
2023-01-17T06:01:41.179Z,0.95
2023-01-17T06:04:08.322Z,1.27
2023-01-17T06:06:35.418Z,1.10
2023-01-17T06:09:02.731Z,1.00
2023-01-17T06:11:30.004Z,0.90
2023-01-17T06:13:57.109Z,0.90
2023-01-17T06:16:24.505Z,0.80
2023-01-17T06:18:51.833Z,1.17
2023-01-17T06:21:19.670Z,1.00
2023-01-17T06:23:46.801Z,0.93
2023-01-17T06:26:14.102Z,1.38
2023-01-17T06:28:41.386Z,0.80
2023-01-17T06:31:09.377Z,1.05
2023-01-17T06:33:36.674Z,1.10
2023-01-17T06:36:04.049Z,1.20
2023-01-17T06:38:31.212Z,0.70
2023-01-17T06:41:00.231Z,1.13
2023-01-17T06:43:28.299Z,1.63
2023-01-17T06:45:55.696Z,1.10
2023-01-17T06:48:22.893Z,1.45
2023-01-17T06:50:50.013Z,2.00
2023-01-17T06:53:17.276Z,1.05
2023-01-17T06:55:44.414Z,0.85
2023-01-17T06:58:11.553Z,0.90
2023-01-17T07:00:40.754Z,1.10
2023-01-17T07:03:14.979Z,0.85
2023-01-17T07:05:42.190Z,0.77
2023-01-17T07:08:09.302Z,0.70
2023-01-17T07:10:36.513Z,1.10
2023-01-17T07:13:03.638Z,0.90
2023-01-17T07:15:30.793Z,0.93
2023-01-17T07:17:57.931Z,0.95
2023-01-17T07:20:25.001Z,0.60
2023-01-17T07:22:52.072Z,0.68
2023-01-17T07:25:20.014Z,0.63
2023-01-17T07:27:47.201Z,0.90
2023-01-17T07:30:14.454Z,0.98
2023-01-17T07:32:41.540Z,1.13
2023-01-17T07:35:08.838Z,1.35
2023-01-17T07:37:35.933Z,1.35
2023-01-17T07:40:04.292Z,1.40
2023-01-17T07:42:31.437Z,1.63
2023-01-17T07:45:00.535Z,1.30
2023-01-17T07:47:27.690Z,1.13
2023-01-17T07:49:56.020Z,1.33
2023-01-17T07:52:23.564Z,1.35
2023-01-17T07:54:50.749Z,1.60
2023-01-17T07:57:17.802Z,2.20
2023-01-17T07:59:44.969Z,1.60
2023-01-17T08:02:19.378Z,1.90
2023-01-17T08:04:46.878Z,1.88
2023-01-17T08:07:14.343Z,2.28
2023-01-17T08:09:42.003Z,2.10
2023-01-17T08:12:09.508Z,1.98
2023-01-17T08:14:36.978Z,2.28
2023-01-17T08:17:04.947Z,1.95
2023-01-17T08:19:31.995Z,2.47
2023-01-17T08:21:59.127Z,2.50
2023-01-17T08:24:26.237Z,2.97
2023-01-17T08:26:57.137Z,2.13
2023-01-17T08:29:24.682Z,2.92
2023-01-17T08:31:51.989Z,3.03
2023-01-17T08:34:19.300Z,2.97
2023-01-17T08:36:47.916Z,2.45
2023-01-17T08:39:15.427Z,3.20
2023-01-17T08:41:42.554Z,3.15
2023-01-17T08:44:09.622Z,2.67
2023-01-17T08:46:38.070Z,2.90
2023-01-17T08:49:05.229Z,3.03
2023-01-17T08:51:32.846Z,2.75
2023-01-17T08:53:59.979Z,2.55
2023-01-17T08:56:27.314Z,4.18
2023-01-17T08:58:54.553Z,3.30
2023-01-17T09:01:21.791Z,2.92
2023-01-17T09:03:49.591Z,3.20
2023-01-17T09:06:17.138Z,3.65
2023-01-17T09:08:47.942Z,3.50
2023-01-17T09:11:16.183Z,3.50
2023-01-17T09:13:43.423Z,4.10
2023-01-17T09:16:11.113Z,3.72
2023-01-17T09:18:38.820Z,4.15
2023-01-17T09:21:16.658Z,3.88
2023-01-17T09:23:44.252Z,4.47
2023-01-17T09:26:21.880Z,4.20
2023-01-17T09:28:49.326Z,4.65
2023-01-17T09:31:17.554Z,4.53
2023-01-17T09:33:45.199Z,4.75
2023-01-17T09:36:12.603Z,5.22
2023-01-17T09:38:40.120Z,5.10
2023-01-17T09:41:22.532Z,5.72
2023-01-17T09:43:52.242Z,6.22
2023-01-17T09:46:24.931Z,4.50
2023-01-17T09:48:56.928Z,5.50
2023-01-17T09:51:24.661Z,5.20
2023-01-17T09:53:53.027Z,5.40
2023-01-17T09:56:23.061Z,4.68
2023-01-17T09:58:50.116Z,4.88
2023-01-17T10:01:29.351Z,5.10
2023-01-17T10:04:15.368Z,4.82
2023-01-17T10:06:54.683Z,5.00
2023-01-17T10:09:21.790Z,5.00
2023-01-17T10:11:51.928Z,5.10
2023-01-17T10:14:25.068Z,5.35
2023-01-17T10:16:52.195Z,5.30
2023-01-17T10:19:25.576Z,4.90
2023-01-17T10:22:19.085Z,5.03
2023-01-17T10:24:49.779Z,5.28
2023-01-17T10:27:28.756Z,4.97
2023-01-17T10:29:55.984Z,4.72
2023-01-17T10:32:25.030Z,4.32
2023-01-17T10:34:52.863Z,5.18
2023-01-17T10:37:23.608Z,4.53
2023-01-17T10:39:51.403Z,4.40
2023-01-17T10:42:32.841Z,4.20
2023-01-17T10:45:04.748Z,4.55
2023-01-17T10:47:33.964Z,3.83
2023-01-17T10:50:05.035Z,4.00
2023-01-17T10:52:52.658Z,4.55
2023-01-17T10:55:19.710Z,4.10
2023-01-17T10:57:48.610Z,4.07
2023-01-17T11:00:34.533Z,4.75
2023-01-17T11:03:03.349Z,4.03
2023-01-17T11:05:31.829Z,4.25
2023-01-17T11:07:59.224Z,3.53
2023-01-17T11:10:44.797Z,4.05
2023-01-17T11:13:17.829Z,3.50
2023-01-17T11:15:48.117Z,4.40
2023-01-17T11:18:16.380Z,4.03
2023-01-17T11:20:44.470Z,3.30
2023-01-17T11:23:23.328Z,7.05
2023-01-17T11:26:10.874Z,2.90
2023-01-17T11:28:39.241Z,3.42
2023-01-17T11:31:08.058Z,3.35
2023-01-17T11:33:35.211Z,3.28
2023-01-17T11:36:02.410Z,3.63
2023-01-17T11:38:29.580Z,2.80
2023-01-17T11:41:16.646Z,2.88
2023-01-17T11:43:55.077Z,2.83
2023-01-17T11:46:22.460Z,2.88
2023-01-17T11:48:56.065Z,2.70
2023-01-17T11:51:25.833Z,2.38
2023-01-17T11:53:54.420Z,2.90
2023-01-17T11:56:30.363Z,2.58
2023-01-17T11:59:16.168Z,3.08
2023-01-17T12:02:03.307Z,2.22
2023-01-17T12:04:42.048Z,2.13
2023-01-17T12:07:16.079Z,2.70
2023-01-17T12:09:51.112Z,2.08
2023-01-17T12:12:55.713Z,2.05
2023-01-17T12:15:25.672Z,2.47
2023-01-17T12:17:52.735Z,1.90
2023-01-17T12:20:24.104Z,2.13
2023-01-17T12:23:13.885Z,1.83
2023-01-17T12:26:04.567Z,2.38
2023-01-17T12:28:51.967Z,2.17
2023-01-17T12:31:24.565Z,3.55
2023-01-17T12:36:19.849Z,2.08
2023-01-17T12:38:48.095Z,2.00
2023-01-17T12:41:23.429Z,2.35
2023-01-17T12:43:54.011Z,2.38
2023-01-17T12:46:24.646Z,1.85
2023-01-17T12:48:53.297Z,2.40
2023-01-17T12:51:31.302Z,2.42
2023-01-17T12:54:02.424Z,1.73
2023-01-17T12:56:33.008Z,1.70
2023-01-17T12:59:03.645Z,1.65
2023-01-17T13:01:32.213Z,2.30
2023-01-17T13:04:11.839Z,1.98
2023-01-17T13:06:59.387Z,1.58
2023-01-17T13:09:29.743Z,1.88
2023-01-17T13:11:58.596Z,1.80
2023-01-17T13:14:25.735Z,1.95
2023-01-17T13:16:57.807Z,1.63
2023-01-17T13:19:30.189Z,2.40
2023-01-17T13:21:57.912Z,1.63
2023-01-17T13:24:37.112Z,1.60
2023-01-17T13:27:04.153Z,1.98
2023-01-17T13:30:09.976Z,1.80
2023-01-17T13:32:55.256Z,1.63
2023-01-17T13:35:25.259Z,1.45
2023-01-17T13:38:10.803Z,1.83
2023-01-17T13:40:50.330Z,1.90
2023-01-17T13:43:22.038Z,1.75
2023-01-17T13:46:00.418Z,2.23
2023-01-17T13:48:28.731Z,1.77
2023-01-17T13:50:57.114Z,1.92
2023-01-17T13:53:31.485Z,1.88
2023-01-17T13:56:17.345Z,1.98
2023-01-17T13:58:50.547Z,1.63
2023-01-17T14:01:24.087Z,1.17
2023-01-17T14:03:54.129Z,1.80
2023-01-17T14:06:36.374Z,1.25
2023-01-17T14:09:03.543Z,1.40
2023-01-17T14:11:34.176Z,1.60
2023-01-17T14:14:22.368Z,2.30
2023-01-17T14:16:49.810Z,1.15
2023-01-17T14:19:27.179Z,1.58
2023-01-17T14:22:14.215Z,1.35
2023-01-17T14:25:05.178Z,1.30
2023-01-17T14:27:39.222Z,1.48
2023-01-17T14:30:27.620Z,1.27
2023-01-17T14:33:03.073Z,1.50
2023-01-17T14:35:32.713Z,1.35
2023-01-17T14:38:05.273Z,1.08
2023-01-17T14:40:33.971Z,1.92
2023-01-17T14:43:11.555Z,1.55
2023-01-17T14:45:39.345Z,1.35
2023-01-17T14:48:07.548Z,1.50
2023-01-17T14:50:39.251Z,1.42
2023-01-17T14:53:15.539Z,1.77
2023-01-17T14:55:48.615Z,1.20
2023-01-17T14:58:17.611Z,1.15
2023-01-17T15:00:44.789Z,1.00
2023-01-17T15:03:12.587Z,1.20
2023-01-17T15:05:44.038Z,0.95
2023-01-17T15:08:15.179Z,1.55
2023-01-17T15:10:54.183Z,1.13
2023-01-17T15:13:43.921Z,1.02
2023-01-17T15:16:23.786Z,1.35
2023-01-17T15:18:51.848Z,1.25
2023-01-17T15:21:20.535Z,1.33
2023-01-17T15:23:53.571Z,1.17
2023-01-17T15:26:21.826Z,1.08
2023-01-17T15:28:49.437Z,1.08
2023-01-17T15:31:19.863Z,1.48
2023-01-17T15:33:48.631Z,1.00
2023-01-17T15:36:21.776Z,1.75
2023-01-17T15:38:52.036Z,1.10
2023-01-17T15:41:21.930Z,1.23
2023-01-17T15:43:49.043Z,2.22
2023-01-17T15:46:29.449Z,1.38
2023-01-17T15:49:19.822Z,1.40
2023-01-17T15:51:54.102Z,1.17
2023-01-17T15:54:44.370Z,1.45
2023-01-17T15:57:18.907Z,1.60
2023-01-17T16:00:07.621Z,2.08
2023-01-17T16:02:42.881Z,1.40
2023-01-17T16:05:23.393Z,1.70
2023-01-17T16:07:51.671Z,2.03
2023-01-17T16:10:23.583Z,1.65
2023-01-17T16:12:52.811Z,1.55
2023-01-17T16:15:21.980Z,1.67
2023-01-17T16:17:50.783Z,1.80
2023-01-17T16:20:22.486Z,1.23
2023-01-17T16:22:50.556Z,2.50
2023-01-17T16:25:19.501Z,1.95
2023-01-17T16:27:46.974Z,1.52
2023-01-17T16:30:15.343Z,1.70
2023-01-17T16:32:43.144Z,1.60
2023-01-17T16:35:20.681Z,1.63
2023-01-17T16:37:51.386Z,1.50
2023-01-17T16:40:22.945Z,1.90
2023-01-17T16:42:50.269Z,1.88
2023-01-17T16:45:18.199Z,1.73
2023-01-17T16:47:46.380Z,1.90
2023-01-17T16:50:14.603Z,1.80
2023-01-17T16:52:41.686Z,2.15
2023-01-17T16:55:10.324Z,2.13
2023-01-17T16:57:37.459Z,2.30
2023-01-17T17:00:05.597Z,2.47
2023-01-17T17:02:32.832Z,2.20
2023-01-17T17:05:00.374Z,2.08
2023-01-17T17:07:27.592Z,2.65
2023-01-17T17:09:54.734Z,2.67
2023-01-17T17:12:22.857Z,2.00
2023-01-17T17:14:50.020Z,2.13
2023-01-17T17:17:17.234Z,2.22
2023-01-17T17:19:44.475Z,1.95
2023-01-17T17:22:11.877Z,1.73
2023-01-17T17:24:39.028Z,1.83
2023-01-17T17:27:06.102Z,1.75
2023-01-17T17:29:33.256Z,1.73
2023-01-17T17:32:00.380Z,2.10
2023-01-17T17:34:28.156Z,1.83
2023-01-17T17:36:55.218Z,2.03
2023-01-17T17:39:22.361Z,1.70
2023-01-17T17:41:49.496Z,2.58
2023-01-17T17:44:17.478Z,2.40
2023-01-17T17:46:45.629Z,2.17
2023-01-17T17:49:12.791Z,1.55
2023-01-17T17:51:40.699Z,1.65
2023-01-17T17:54:09.201Z,2.45
2023-01-17T17:56:36.871Z,1.73
2023-01-17T17:59:04.778Z,2.33
2023-01-17T18:01:32.155Z,2.08
2023-01-17T18:04:03.100Z,2.40
2023-01-17T18:06:30.598Z,2.13
2023-01-17T18:08:57.659Z,2.58
2023-01-17T18:11:26.527Z,2.35
2023-01-17T18:13:54.786Z,2.38
2023-01-17T18:16:26.582Z,2.28
2023-01-17T18:18:54.752Z,2.30
2023-01-17T18:21:24.901Z,2.17
2023-01-17T18:23:56.613Z,2.28
2023-01-17T18:26:28.283Z,2.80
2023-01-17T18:28:55.923Z,2.42
2023-01-17T18:31:25.090Z,2.17
2023-01-17T18:33:53.535Z,3.10
2023-01-17T18:36:21.082Z,2.53
2023-01-17T18:38:48.699Z,2.25
2023-01-17T18:41:16.850Z,2.60
2023-01-17T18:43:44.100Z,2.47
2023-01-17T18:46:11.669Z,2.70
2023-01-17T18:48:39.036Z,3.25
2023-01-17T18:51:17.610Z,2.70
2023-01-17T18:53:45.517Z,2.65
2023-01-17T18:56:18.663Z,2.65
2023-01-17T18:58:47.993Z,3.53
2023-01-17T19:01:19.528Z,2.75
2023-01-17T19:03:47.645Z,2.60
2023-01-17T19:06:16.387Z,2.75
2023-01-17T19:08:43.658Z,2.13
2023-01-17T19:11:11.166Z,2.95
2023-01-17T19:13:39.141Z,2.80
2023-01-17T19:16:07.816Z,3.25
2023-01-17T19:18:35.410Z,3.08
2023-01-17T19:21:05.601Z,3.40
2023-01-17T19:23:32.772Z,2.30
2023-01-17T19:25:59.842Z,2.50
2023-01-17T19:28:28.826Z,3.03
2023-01-17T19:31:16.205Z,2.85
2023-01-17T19:33:44.596Z,2.75
2023-01-17T19:36:19.474Z,2.92
2023-01-17T19:38:58.740Z,3.33
2023-01-17T19:41:30.785Z,3.17
2023-01-17T19:43:58.991Z,4.72
2023-01-17T19:46:27.427Z,4.05
2023-01-17T19:48:55.440Z,3.42
2023-01-17T19:51:22.879Z,3.80
2023-01-17T19:53:50.028Z,3.38
2023-01-17T19:56:18.643Z,2.83
2023-01-17T19:58:46.734Z,2.85
2023-01-17T20:01:15.678Z,2.72
2023-01-17T20:03:46.376Z,2.83
2023-01-17T20:06:15.033Z,3.63
2023-01-17T20:08:42.230Z,3.13
2023-01-17T20:11:11.391Z,2.67
2023-01-17T20:13:38.612Z,3.13
2023-01-17T20:16:06.739Z,2.95
2023-01-17T20:18:34.362Z,3.13
2023-01-17T20:21:08.930Z,3.05
2023-01-17T20:23:38.399Z,3.05
2023-01-17T20:26:06.112Z,3.35
2023-01-17T20:28:34.498Z,3.90
2023-01-17T20:31:05.700Z,2.72
2023-01-17T20:33:33.333Z,2.80
2023-01-17T20:36:10.249Z,3.05
2023-01-17T20:38:43.853Z,3.45
2023-01-17T20:41:12.084Z,2.47
2023-01-17T20:43:39.349Z,2.60
2023-01-17T20:46:06.901Z,3.20
2023-01-17T20:48:34.464Z,2.85
2023-01-17T20:51:10.456Z,2.72
2023-01-17T20:53:38.566Z,2.97
2023-01-17T20:56:06.134Z,3.08
2023-01-17T20:58:34.027Z,3.25
2023-01-17T21:01:01.691Z,3.03
2023-01-17T21:03:29.211Z,2.75
2023-01-17T21:06:01.624Z,3.70
2023-01-17T21:08:32.477Z,3.20
2023-01-17T21:10:59.684Z,3.13
2023-01-17T21:13:27.272Z,3.13
2023-01-17T21:15:54.475Z,3.25
2023-01-17T21:18:22.653Z,3.15
2023-01-17T21:20:49.893Z,2.88
2023-01-17T21:23:20.176Z,3.17
2023-01-17T21:25:55.624Z,3.30
2023-01-17T21:28:23.425Z,3.17
2023-01-17T21:30:50.953Z,3.08
2023-01-17T21:33:18.464Z,3.45
2023-01-17T21:35:45.789Z,3.00
2023-01-17T21:38:13.845Z,3.50
2023-01-17T21:40:41.736Z,2.58
2023-01-17T21:43:08.965Z,3.53
2023-01-17T21:45:39.736Z,3.08
2023-01-17T21:48:07.615Z,3.72
2023-01-17T21:50:34.888Z,3.08
2023-01-17T21:53:03.195Z,3.33
2023-01-17T21:55:50.322Z,3.33
2023-01-17T21:58:36.645Z,2.97
2023-01-17T22:01:21.379Z,3.17
2023-01-17T22:03:50.538Z,3.30
2023-01-17T22:06:18.268Z,3.30
2023-01-17T22:08:45.444Z,2.97
2023-01-17T22:11:14.307Z,3.40
2023-01-17T22:13:42.821Z,3.60
2023-01-17T22:16:14.253Z,3.30
2023-01-17T22:18:42.610Z,3.13
2023-01-17T22:21:14.040Z,3.50
2023-01-17T22:23:45.400Z,3.10
2023-01-17T22:26:12.535Z,3.40
2023-01-17T22:28:40.144Z,3.80
2023-01-17T22:31:08.840Z,3.42
2023-01-17T22:33:36.856Z,3.10
2023-01-17T22:36:04.469Z,3.35
2023-01-17T22:38:31.996Z,3.45
2023-01-17T22:41:09.730Z,3.72
2023-01-17T22:43:37.709Z,3.25
2023-01-17T22:46:06.199Z,3.40
2023-01-17T22:48:34.588Z,3.00
2023-01-17T22:51:02.636Z,3.67
2023-01-17T22:53:30.330Z,3.05
2023-01-17T22:56:00.699Z,3.35
2023-01-17T22:58:28.711Z,3.55
2023-01-17T23:00:57.419Z,3.63
2023-01-17T23:03:24.681Z,3.58
2023-01-17T23:05:52.263Z,3.10
2023-01-17T23:08:20.057Z,2.88
2023-01-17T23:11:05.731Z,3.13
2023-01-17T23:13:32.932Z,2.90
2023-01-17T23:16:23.252Z,3.45
2023-01-17T23:19:09.367Z,2.90
2023-01-17T23:21:56.851Z,3.13
2023-01-17T23:24:24.061Z,3.10
2023-01-17T23:27:11.430Z,3.00
2023-01-17T23:29:38.543Z,3.38
2023-01-17T23:32:05.937Z,3.10
2023-01-17T23:34:33.027Z,3.17
2023-01-17T23:37:00.183Z,2.85
2023-01-17T23:39:28.561Z,3.28
2023-01-17T23:42:14.339Z,3.20
2023-01-17T23:44:41.508Z,3.30
2023-01-17T23:47:08.650Z,3.88
2023-01-17T23:49:35.764Z,3.28
2023-01-17T23:52:02.892Z,3.78
2023-01-17T23:54:32.052Z,3.22
2023-01-17T23:56:59.199Z,3.45
2023-01-17T23:59:26.360Z,3.75
